Time;durP1;ratioP1;P1;durP2;ratioP2;P2;SDS_P1;SDS_P2;PMS_P1;PMS_P2;Temp;Humidity;BMP_temperature;BMP_pressure;BME280_temperature;BME280_humidity;BME280_pressure;Samples;Min_cycle;Max_cycle;Signal;HPM_P1;HPM_P2
2023/06/13 00:01:35;;;;;;;;;;;;;;;-140.72;0.00;52092.59;6244600;23;19919;-71
2023/06/13 00:04:02;;;;;;;;;;;;;;;-140.72;0.00;52114.91;6244946;23;19916;-71
2023/06/13 00:06:29;;;;;;;;;;;;;;;-140.72;0.00;52102.75;6244250;23;20018;-71
2023/06/13 00:08:54;;;;;;;;;;;;;;;-140.72;0.00;52094.63;6244762;23;19912;-72
2023/06/13 00:11:19;;;;;;;;;;;;;;;-140.72;0.00;52084.47;6244276;23;20284;-71
2023/06/13 00:13:45;;;;;;;;;;;;;;;-140.72;0.00;52114.91;6244423;23;19991;-71
2023/06/13 00:16:12;;;;;;;;;;;;;;;-140.72;0.00;52125.06;6244036;23;19987;-71
2023/06/13 00:18:37;;;;;;;;;;;;;;;-140.72;0.00;52080.41;6244823;23;19918;-71
2023/06/13 00:21:03;;;;;;;;;;;;;;;-140.72;0.00;52080.41;6217491;23;19920;-71
2023/06/13 00:23:28;;;;;;;;;;;;;;;-140.72;0.00;52110.84;6217793;23;19911;-71
2023/06/13 00:25:54;;;;;;;;;;;;;;;-140.72;0.00;52102.75;6245223;23;20292;-71
2023/06/13 00:28:19;;;;;;;;;;;;;;;-140.72;0.00;52102.75;6217572;23;20408;-71
2023/06/13 00:30:45;;;;;;;;;;;;;;;-140.72;0.00;52102.75;6244398;23;20039;-70
2023/06/13 00:33:17;;;;;;;;;;;;;;;-140.72;0.00;52131.16;6217882;23;19911;-71
2023/06/13 00:35:43;;;;;;;;;;;;;;;-140.72;0.00;52086.50;6245355;23;19915;-70
2023/06/13 00:38:08;;;;;;;;;;;;;;;-140.72;0.00;52082.44;6218088;23;20393;-71
2023/06/13 00:40:33;;;;;;;;;;;;;;;-140.72;0.00;52114.91;6244686;23;19915;-71
2023/06/13 00:42:59;;;;;;;;;;;;;;;-140.72;0.00;52145.34;6217485;23;20011;-70
2023/06/13 00:45:25;;;;;;;;;;;;;;;-140.72;0.00;52121.00;6245589;23;19918;-71
2023/06/13 00:47:52;;;;;;;;;;;;;;;-140.72;0.00;52098.69;6244662;22;20011;-70
2023/06/13 00:50:28;;;;;;;;;;;;;;;-140.72;0.00;52127.09;6217458;23;19912;-71
2023/06/13 00:52:54;;;;;;;;;;;;;;;-140.72;0.00;52145.34;6246649;23;20328;-70
2023/06/13 00:55:20;;;;;;;;;;;;;;;-140.72;0.00;52110.84;6246311;23;20236;-71
2023/06/13 00:57:46;;;;;;;;;;;;;;;-140.72;0.00;52096.66;6246148;23;19958;-71
2023/06/13 01:00:11;;;;;;;;;;;;;;;-140.72;0.00;52106.78;6246555;23;19912;-71
2023/06/13 01:02:37;;;;;;;;;;;;;;;-140.72;0.00;52135.19;6218805;23;19919;-71
2023/06/13 01:05:02;;;;;;;;;;;;;;;-140.72;0.00;52110.84;6245878;23;19916;-71
2023/06/13 01:07:29;;;;;;;;;;;;;;;-140.72;0.00;52123.03;6245812;23;19912;-70
2023/06/13 01:10:01;;;;;;;;;;;;;;;-140.72;0.00;52133.16;6245676;23;19918;-71
2023/06/13 01:12:33;;;;;;;;;;;;;;;-140.72;0.00;52084.47;6246149;23;20386;-71
2023/06/13 01:15:04;;;;;;;;;;;;;;;-140.72;0.00;52127.09;6246090;23;19912;-71
2023/06/13 01:17:33;;;;;;;;;;;;;;;-140.72;0.00;52104.75;6218446;23;19919;-71
2023/06/13 01:19:59;;;;;;;;;;;;;;;-140.72;0.00;52123.03;6218593;23;19916;-71
2023/06/13 01:22:30;;;;;;;;;;;;;;;-140.72;0.00;52131.16;6245594;23;19919;-71
2023/06/13 01:25:08;;;;;;;;;;;;;;;-140.72;0.00;52149.41;6245720;23;19912;-71
2023/06/13 01:27:35;;;;;;;;;;;;;;;-140.72;0.00;52121.00;6245861;23;19915;-71
2023/06/13 01:30:01;;;;;;;;;;;;;;;-140.72;0.00;52114.91;6245821;23;19923;-71
2023/06/13 01:32:27;;;;;;;;;;;;;;;-140.72;0.00;52098.69;6245491;23;19916;-71
2023/06/13 01:34:53;;;;;;;;;;;;;;;-140.72;0.00;52121.00;6218882;23;20170;-71
2023/06/13 01:37:26;;;;;;;;;;;;;;;-140.72;0.00;52123.03;6244951;23;19916;-71
2023/06/13 01:39:52;;;;;;;;;;;;;;;-140.72;0.00;52143.31;6218877;23;20247;-71
2023/06/13 01:42:17;;;;;;;;;;;;;;;-140.72;0.00;52123.03;6245497;23;19923;-71
2023/06/13 01:44:42;;;;;;;;;;;;;;;-140.72;0.00;52116.94;6218677;23;20485;-70
2023/06/13 01:47:07;;;;;;;;;;;;;;;-140.72;0.00;52143.31;6245585;22;19912;-72
2023/06/13 01:49:56;;;;;;;;;;;;;;;-140.72;0.00;52161.56;6218612;23;19994;-71
2023/06/13 01:52:42;;;;;;;;;;;;;;;-140.72;0.00;52147.38;6202178;23;19915;-71
2023/06/13 01:55:30;;;;;;;;;;;;;;;-140.72;0.00;52127.09;6218258;23;19991;-71
2023/06/13 01:58:09;;;;;;;;;;;;;;;-140.72;0.00;52155.50;6218730;23;19911;-71
2023/06/13 02:00:35;;;;;;;;;;;;;;;-140.72;0.00;52106.78;6245257;23;20287;-71
2023/06/13 02:03:01;;;;;;;;;;;;;;;-140.72;0.00;52155.50;6218209;23;19959;-71
2023/06/13 02:05:26;;;;;;;;;;;;;;;-140.72;0.00;52198.09;6245129;23;20483;-71
2023/06/13 02:07:53;;;;;;;;;;;;;;;-140.72;0.00;52141.28;6244884;23;19997;-71
2023/06/13 02:10:19;;;;;;;;;;;;;;;-140.72;0.00;52149.41;6245837;23;19939;-71
2023/06/13 02:12:44;;;;;;;;;;;;;;;-140.72;0.00;52159.56;6246579;23;19922;-71
2023/06/13 02:15:10;;;;;;;;;;;;;;;-140.72;0.00;52187.97;6219955;23;19986;-71
2023/06/13 02:17:35;;;;;;;;;;;;;;;-140.72;0.00;52163.59;6247366;23;19912;-71
2023/06/13 02:20:01;;;;;;;;;;;;;;;-140.72;0.00;52161.56;6247586;23;19927;-71
2023/06/13 02:22:26;;;;;;;;;;;;;;;-140.72;0.00;52147.38;6247692;23;20066;-70
2023/06/13 02:24:51;;;;;;;;;;;;;;;-140.72;0.00;52147.38;6246607;23;19959;-71
2023/06/13 02:27:17;;;;;;;;;;;;;;;-140.72;0.00;52202.16;6245863;23;19918;-71
2023/06/13 02:29:44;;;;;;;;;;;;;;;-140.72;0.00;52161.56;6218425;23;20278;-71
2023/06/13 02:32:09;;;;;;;;;;;;;;;-140.72;0.00;52192.00;6219272;23;20517;-70
2023/06/13 02:34:34;;;;;;;;;;;;;;;-140.72;0.00;52147.38;6219365;23;19911;-71
2023/06/13 02:36:59;;;;;;;;;;;;;;;-140.72;0.00;52157.53;6245225;23;20029;-71
2023/06/13 02:39:38;;;;;;;;;;;;;;;-140.72;0.00;52204.19;6245225;23;19912;-70
2023/06/13 02:42:03;;;;;;;;;;;;;;;-140.72;0.00;52163.59;6245748;23;19915;-71
2023/06/13 02:44:32;;;;;;;;;;;;;;;-140.72;0.00;52208.25;6218320;23;20271;-71
2023/06/13 02:46:58;;;;;;;;;;;;;;;-140.72;0.00;52137.22;6245282;22;20014;-70
2023/06/13 02:49:23;;;;;;;;;;;;;;;-140.72;0.00;52196.06;6217618;23;19915;-71
2023/06/13 02:51:48;;;;;;;;;;;;;;;-140.72;0.00;52175.78;6218220;23;19950;-70
2023/06/13 02:54:14;;;;;;;;;;;;;;;-140.72;0.00;52167.66;6218203;23;19973;-70
2023/06/13 02:56:39;;;;;;;;;;;;;;;-140.72;0.00;52165.63;6244893;23;19911;-71
2023/06/13 02:59:05;;;;;;;;;;;;;;;-140.72;0.00;52210.28;6244678;23;19918;-71
2023/06/13 03:01:30;;;;;;;;;;;;;;;-140.72;0.00;52212.31;6245018;23;20289;-71
2023/06/13 03:03:55;;;;;;;;;;;;;;;-140.72;0.00;52206.22;6244893;23;19912;-70
2023/06/13 03:06:20;;;;;;;;;;;;;;;-140.72;0.00;52179.84;6244624;23;20086;-71
2023/06/13 03:08:47;;;;;;;;;;;;;;;-140.72;0.00;52196.06;6217722;23;20212;-70
2023/06/13 03:11:12;;;;;;;;;;;;;;;-140.72;0.00;52200.13;6244616;23;19927;-70
2023/06/13 03:13:38;;;;;;;;;;;;;;;-140.72;0.00;52216.34;6217586;23;20265;-71
2023/06/13 03:16:04;;;;;;;;;;;;;;;-140.72;0.00;52200.13;6244324;23;19917;-71
2023/06/13 03:18:29;;;;;;;;;;;;;;;-140.72;0.00;52161.56;6245323;23;19912;-71
2023/06/13 03:20:54;;;;;;;;;;;;;;;-140.72;0.00;52151.44;6244889;23;20017;-70
2023/06/13 03:23:20;;;;;;;;;;;;;;;-140.72;0.00;52234.63;6244634;23;19939;-71
2023/06/13 03:25:45;;;;;;;;;;;;;;;-140.72;0.00;52171.72;6217759;23;19969;-71
2023/06/13 03:28:10;;;;;;;;;;;;;;;-140.72;0.00;52208.25;6244343;23;19911;-71
2023/06/13 03:30:36;;;;;;;;;;;;;;;-140.72;0.00;52206.22;6244605;23;19911;-71
2023/06/13 03:33:01;;;;;;;;;;;;;;;-140.72;0.00;52196.06;6217570;23;19959;-71
2023/06/13 03:35:27;;;;;;;;;;;;;;;-140.72;0.00;52179.84;6217433;23;20324;-71
2023/06/13 03:37:52;;;;;;;;;;;;;;;-140.72;0.00;52196.06;6247069;23;19916;-71
2023/06/13 03:40:17;;;;;;;;;;;;;;;-140.72;0.00;52232.59;6244990;23;19912;-71
2023/06/13 03:42:43;;;;;;;;;;;;;;;-140.72;0.00;52256.94;6244376;23;19912;-71
2023/06/13 03:45:08;;;;;;;;;;;;;;;-140.72;0.00;52216.34;6244976;23;19986;-72
2023/06/13 03:47:34;;;;;;;;;;;;;;;-140.72;0.00;52179.84;6217393;23;20022;-71
2023/06/13 03:49:59;;;;;;;;;;;;;;;-140.72;0.00;52208.25;6244420;23;19911;-71
2023/06/13 03:52:24;;;;;;;;;;;;;;;-140.72;0.00;52183.91;6217344;23;19912;-71
2023/06/13 03:54:51;;;;;;;;;;;;;;;-140.72;0.00;52167.66;6244169;23;19919;-71
2023/06/13 03:57:16;;;;;;;;;;;;;;;-140.72;0.00;52198.09;6217243;23;19911;-72
2023/06/13 03:59:42;;;;;;;;;;;;;;;-140.72;0.00;52208.25;6244262;23;19943;-71
2023/06/13 04:02:07;;;;;;;;;;;;;;;-140.72;0.00;52202.16;6218629;23;20320;-71
2023/06/13 04:04:33;;;;;;;;;;;;;;;-140.72;0.00;52216.34;6218231;23;20225;-72
2023/06/13 04:06:58;;;;;;;;;;;;;;;-140.72;0.00;52224.47;6244597;23;20476;-71
2023/06/13 04:09:23;;;;;;;;;;;;;;;-140.72;0.00;52179.84;6244296;23;19912;-71
2023/06/13 04:11:49;;;;;;;;;;;;;;;-140.72;0.00;52187.97;6244344;23;19911;-72
2023/06/13 04:14:14;;;;;;;;;;;;;;;-140.72;0.00;52183.91;6244242;23;19939;-72
2023/06/13 04:16:39;;;;;;;;;;;;;;;-140.72;0.00;52167.66;6244243;23;20293;-71
2023/06/13 04:19:05;;;;;;;;;;;;;;;-140.72;0.00;52187.97;6244802;23;20177;-72
2023/06/13 04:21:30;;;;;;;;;;;;;;;-140.72;0.00;52192.00;6244188;23;19990;-75
2023/06/13 04:23:55;;;;;;;;;;;;;;;-140.72;0.00;52238.69;6217732;23;19939;-72
2023/06/13 04:26:20;;;;;;;;;;;;;;;-140.72;0.00;52218.38;6245278;23;19930;-72
2023/06/13 04:28:47;;;;;;;;;;;;;;;-140.72;0.00;52228.53;6246830;23;19911;-72
2023/06/13 04:31:13;;;;;;;;;;;;;;;-140.72;0.00;52194.03;6246669;23;19915;-72
2023/06/13 04:33:39;;;;;;;;;;;;;;;-140.72;0.00;52216.34;6246660;23;19986;-72
2023/06/13 04:36:05;;;;;;;;;;;;;;;-140.72;0.00;52214.34;6219756;23;20250;-71
2023/06/13 04:38:31;;;;;;;;;;;;;;;-140.72;0.00;52194.03;6246639;23;19915;-72
2023/06/13 04:40:57;;;;;;;;;;;;;;;-140.72;0.00;52167.66;6246655;23;19934;-74
2023/06/13 04:43:22;;;;;;;;;;;;;;;-140.72;0.00;52177.81;6245681;23;20287;-73
2023/06/13 04:45:48;;;;;;;;;;;;;;;-140.72;0.00;52157.53;6219133;23;20216;-72
2023/06/13 04:51:09;;;;;;;;;;;;;;;-140.72;0.00;52183.91;6246558;23;19938;-74
2023/06/13 04:53:34;;;;;;;;;;;;;;;-140.72;0.00;52171.72;6246303;23;19938;-71
2023/06/13 04:56:00;;;;;;;;;;;;;;;-140.72;0.00;52175.78;6246138;23;19912;-73
2023/06/13 04:58:25;;;;;;;;;;;;;;;-140.72;0.00;52196.06;6246570;23;19912;-74
2023/06/13 05:00:51;;;;;;;;;;;;;;;-140.72;0.00;52198.09;6250563;23;19955;-73
2023/06/13 05:03:18;;;;;;;;;;;;;;;-140.72;0.00;52175.78;6250428;23;19911;-71
2023/06/13 05:05:44;;;;;;;;;;;;;;;-140.72;0.00;52196.06;6246315;23;19919;-73
2023/06/13 05:08:09;;;;;;;;;;;;;;;-140.72;0.00;52220.41;6219068;23;20329;-74
2023/06/13 05:10:35;;;;;;;;;;;;;;;-140.72;0.00;52196.06;6245899;23;19993;-73
2023/06/13 05:13:01;;;;;;;;;;;;;;;-140.72;0.00;52183.91;6245761;23;20716;-74
2023/06/13 05:15:26;;;;;;;;;;;;;;;-140.72;0.00;52145.34;6219051;23;20216;-74
2023/06/13 05:17:54;;;;;;;;;;;;;;;-140.72;0.00;52163.59;6245852;23;19950;-74
2023/06/13 05:20:22;;;;;;;;;;;;;;;-140.72;0.00;52183.91;6246095;23;19916;-74
2023/06/13 05:22:48;;;;;;;;;;;;;;;-140.72;0.00;52177.81;6246120;23;19958;-74
2023/06/13 05:25:13;;;;;;;;;;;;;;;-140.72;0.00;52200.13;6245465;23;19911;-74
2023/06/13 05:27:38;;;;;;;;;;;;;;;-140.72;0.00;52167.66;6246148;23;20054;-74
2023/06/13 05:30:06;;;;;;;;;;;;;;;-140.72;0.00;52179.84;6246425;23;20003;-74
2023/06/13 05:35:34;;;;;;;;;;;;;;;-140.72;0.00;52163.59;6246379;23;19964;-74
2023/06/13 05:38:09;;;;;;;;;;;;;;;-140.72;0.00;52155.50;6245542;23;19935;-74
2023/06/13 05:40:34;;;;;;;;;;;;;;;-140.72;0.00;52151.44;6246223;23;19911;-74
2023/06/13 05:43:00;;;;;;;;;;;;;;;-140.72;0.00;52169.69;6245559;23;20005;-74
2023/06/13 05:45:25;;;;;;;;;;;;;;;-140.72;0.00;52145.34;6218746;23;19911;-74
2023/06/13 05:47:50;;;;;;;;;;;;;;;-140.72;0.00;52155.50;6245509;22;19919;-72
2023/06/13 05:50:15;;;;;;;;;;;;;;;-140.72;0.00;52165.63;6218497;23;19958;-72
2023/06/13 05:52:41;;;;;;;;;;;;;;;-140.72;0.00;52149.41;6245318;23;20220;-72
2023/06/13 05:55:06;;;;;;;;;;;;;;;-140.72;0.00;52187.97;6246213;23;20316;-72
2023/06/13 05:57:50;;;;;;;;;;;;;;;-140.72;0.00;52147.38;6245891;23;19957;-72
2023/06/13 06:00:15;;;;;;;;;;;;;;;-140.72;0.00;52155.50;6219571;23;20324;-73
2023/06/13 06:02:41;;;;;;;;;;;;;;;-140.72;0.00;52151.44;6247695;23;19911;-73
2023/06/13 06:05:14;;;;;;;;;;;;;;;-140.72;0.00;52141.28;6247354;23;19911;-73
2023/06/13 06:07:40;;;;;;;;;;;;;;;-140.72;0.00;52163.59;6219854;23;20220;-75
2023/06/13 06:10:06;;;;;;;;;;;;;;;-140.72;0.00;52147.38;6247342;23;19912;-73
2023/06/13 06:12:31;;;;;;;;;;;;;;;-140.72;0.00;52123.03;6245253;23;19912;-74
2023/06/13 06:14:57;;;;;;;;;;;;;;;-140.72;0.00;52108.81;6244605;23;19946;-73
2023/06/13 06:17:22;;;;;;;;;;;;;;;-140.72;0.00;52145.34;6217554;23;19923;-73
2023/06/13 06:19:48;;;;;;;;;;;;;;;-140.72;0.00;52123.03;6244613;23;19915;-74
2023/06/13 06:22:13;;;;;;;;;;;;;;;-140.72;0.00;52143.31;6244176;23;20247;-74
2023/06/13 06:24:39;;;;;;;;;;;;;;;-140.72;0.00;52143.31;6245925;23;19912;-73
2023/06/13 06:27:05;;;;;;;;;;;;;;;-140.72;0.00;52090.56;6218235;23;19923;-74
2023/06/13 06:29:31;;;;;;;;;;;;;;;-140.72;0.00;52090.56;6244971;23;20576;-74
2023/06/13 06:31:56;;;;;;;;;;;;;;;-140.72;0.00;52106.78;6245150;23;19918;-74
2023/06/13 06:34:21;;;;;;;;;;;;;;;-140.72;0.00;52110.84;6217283;23;19911;-74
2023/06/13 06:36:46;;;;;;;;;;;;;;;-140.72;0.00;52100.72;6244241;23;19915;-74
2023/06/13 06:39:12;;;;;;;;;;;;;;;-140.72;0.00;52078.38;6244318;23;19915;-73
2023/06/13 06:41:37;;;;;;;;;;;;;;;-140.72;0.00;52094.63;6244352;23;20311;-74
2023/06/13 06:44:03;;;;;;;;;;;;;;;-140.72;0.00;52062.16;6244456;23;20310;-75
2023/06/13 06:46:28;;;;;;;;;;;;;;;-140.72;0.00;52090.56;6245550;23;20326;-75
2023/06/13 06:48:53;;;;;;;;;;;;;;;-140.72;0.00;52096.66;6247876;22;19922;-75
2023/06/13 06:51:18;;;;;;;;;;;;;;;-140.72;0.00;52110.84;6249841;23;19912;-72
2023/06/13 06:53:44;;;;;;;;;;;;;;;-140.72;0.00;52052.00;6245564;23;20010;-75
2023/06/13 06:56:09;;;;;;;;;;;;;;;-140.72;0.00;52068.25;6244846;23;19912;-75
2023/06/13 06:58:34;;;;;;;;;;;;;;;-140.72;0.00;52086.50;6245680;23;20243;-75
2023/06/13 07:01:00;;;;;;;;;;;;;;;-140.72;0.00;52074.34;6218192;23;19930;-75
2023/06/13 07:03:25;;;;;;;;;;;;;;;-140.72;0.00;52084.47;6218291;23;19912;-74
2023/06/13 07:05:50;;;;;;;;;;;;;;;-140.72;0.00;52052.00;6244732;23;19912;-74
2023/06/13 07:08:15;;;;;;;;;;;;;;;-140.72;0.00;52039.84;6245239;23;19911;-72
2023/06/13 07:10:41;;;;;;;;;;;;;;;-140.72;0.00;52094.63;6244912;23;19912;-73
2023/06/13 07:13:06;;;;;;;;;;;;;;;-140.72;0.00;52025.63;6245021;23;19963;-73
2023/06/13 07:15:31;;;;;;;;;;;;;;;-140.72;0.00;52060.13;6244918;23;19922;-73
2023/06/13 07:17:56;;;;;;;;;;;;;;;-140.72;0.00;52041.88;6244737;23;20321;-72
2023/06/13 07:20:22;;;;;;;;;;;;;;;-140.72;0.00;52009.41;6245129;23;19923;-72
2023/06/13 07:22:47;;;;;;;;;;;;;;;-140.72;0.00;52047.97;6244754;23;19972;-72
2023/06/13 07:25:12;;;;;;;;;;;;;;;-140.72;0.00;52017.53;6244515;23;20316;-73
2023/06/13 07:27:37;;;;;;;;;;;;;;;-140.72;0.00;52005.34;6245568;23;19912;-73
2023/06/13 07:30:03;;;;;;;;;;;;;;;-140.72;0.00;52007.38;6244802;23;19962;-73
2023/06/13 07:32:28;;;;;;;;;;;;;;;-140.72;0.00;51999.25;6218552;23;19923;-73
2023/06/13 07:34:53;;;;;;;;;;;;;;;-140.72;0.00;52037.81;6244489;23;19983;-73
2023/06/13 07:37:19;;;;;;;;;;;;;;;-140.72;0.00;52011.44;6244522;23;19911;-73
2023/06/13 07:39:45;;;;;;;;;;;;;;;-140.72;0.00;51970.84;6244226;23;19912;-73
2023/06/13 07:42:10;;;;;;;;;;;;;;;-140.72;0.00;51985.06;6217502;23;19915;-73
2023/06/13 07:44:35;;;;;;;;;;;;;;;-140.72;0.00;52007.38;6244379;23;19912;-73
2023/06/13 07:47:00;;;;;;;;;;;;;;;-140.72;0.00;52001.28;6245101;22;19912;-73
2023/06/13 07:49:26;;;;;;;;;;;;;;;-140.72;0.00;51972.88;6245633;23;20361;-73
2023/06/13 07:51:51;;;;;;;;;;;;;;;-140.72;0.00;51989.13;6246593;23;19942;-73
2023/06/13 07:54:16;;;;;;;;;;;;;;;-140.72;0.00;51966.81;6219723;23;19965;-73
2023/06/13 07:56:44;;;;;;;;;;;;;;;-140.72;0.00;51948.53;6246617;23;19922;-73
2023/06/13 07:59:09;;;;;;;;;;;;;;;-140.72;0.00;51970.84;6245890;23;19911;-73
2023/06/13 08:01:34;;;;;;;;;;;;;;;-140.72;0.00;51964.78;6244749;23;19954;-73
2023/06/13 08:03:59;;;;;;;;;;;;;;;-140.72;0.00;51912.03;6244717;23;19943;-73
2023/06/13 08:06:25;;;;;;;;;;;;;;;-140.72;0.00;51914.03;6245037;23;19912;-73
2023/06/13 08:08:50;;;;;;;;;;;;;;;-140.72;0.00;51926.22;6244701;23;20209;-73
2023/06/13 08:11:15;;;;;;;;;;;;;;;-140.72;0.00;51932.31;6217424;23;19919;-73
2023/06/13 08:13:40;;;;;;;;;;;;;;;-140.72;0.00;51901.88;6244634;23;19919;-73
2023/06/13 08:16:06;;;;;;;;;;;;;;;-140.72;0.00;51903.91;6244161;23;20319;-73
2023/06/13 08:18:31;;;;;;;;;;;;;;;-140.72;0.00;51905.94;6217447;23;20243;-73
2023/06/13 08:20:56;;;;;;;;;;;;;;;-140.72;0.00;51899.84;6243892;23;19923;-73
2023/06/13 08:23:21;;;;;;;;;;;;;;;-140.72;0.00;51883.63;6244336;23;20415;-73
2023/06/13 08:25:47;;;;;;;;;;;;;;;-140.72;0.00;51885.66;6243991;23;20193;-73
2023/06/13 08:28:13;;;;;;;;;;;;;;;-140.72;0.00;51887.66;6244476;23;19923;-73
2023/06/13 08:30:39;;;;;;;;;;;;;;;-140.72;0.00;51867.38;6244795;23;19951;-73
2023/06/13 08:33:04;;;;;;;;;;;;;;;-140.72;0.00;51847.09;6244519;23;19912;-73
2023/06/13 08:35:30;;;;;;;;;;;;;;;-140.72;0.00;51838.97;6216639;23;19919;-73
2023/06/13 08:37:55;;;;;;;;;;;;;;;-140.72;0.00;51830.88;6244645;23;19990;-75
2023/06/13 08:40:20;;;;;;;;;;;;;;;-140.72;0.00;51838.97;6243998;23;19919;-73
2023/06/13 08:42:46;;;;;;;;;;;;;;;-140.72;0.00;51828.84;6243882;23;19911;-73
2023/06/13 08:45:12;;;;;;;;;;;;;;;-140.72;0.00;51790.28;6244071;23;19993;-73
2023/06/13 08:47:38;;;;;;;;;;;;;;;-140.72;0.00;51810.56;6244424;22;20276;-72
2023/06/13 08:50:03;;;;;;;;;;;;;;;-140.72;0.00;51826.81;6244722;23;20061;-73
2023/06/13 08:52:36;;;;;;;;;;;;;;;-140.72;0.00;51767.97;6243802;23;19941;-73
2023/06/13 08:55:03;;;;;;;;;;;;;;;-140.72;0.00;51810.56;6244442;23;19919;-73
2023/06/13 08:57:29;;;;;;;;;;;;;;;-140.72;0.00;51770.00;6244924;23;19985;-72
2023/06/13 08:59:55;;;;;;;;;;;;;;;-140.72;0.00;51761.88;6244349;23;19912;-73
2023/06/13 09:02:23;;;;;;;;;;;;;;;-140.72;0.00;51796.38;6217187;23;19959;-72
2023/06/13 09:04:49;;;;;;;;;;;;;;;-140.72;0.00;51782.16;6244342;23;19962;-73
2023/06/13 09:07:16;;;;;;;;;;;;;;;-140.72;0.00;51749.72;6244248;23;20169;-73
2023/06/13 09:09:41;;;;;;;;;;;;;;;-140.72;0.00;51759.84;6244515;23;20341;-73
2023/06/13 09:12:08;;;;;;;;;;;;;;;-140.72;0.00;51729.44;6217766;23;19954;-73
2023/06/13 09:14:33;;;;;;;;;;;;;;;-140.72;0.00;51711.16;6247642;23;19912;-73
2023/06/13 09:16:59;;;;;;;;;;;;;;;-140.72;0.00;51696.97;6246344;23;19912;-73
2023/06/13 09:19:24;;;;;;;;;;;;;;;-140.72;0.00;51672.63;6245919;23;20316;-73
2023/06/13 09:21:50;;;;;;;;;;;;;;;-140.72;0.00;51676.69;6246566;23;19912;-73
2023/06/13 09:24:15;;;;;;;;;;;;;;;-140.72;0.00;51682.75;6246280;23;20267;-73
2023/06/13 09:26:41;;;;;;;;;;;;;;;-140.72;0.00;51690.88;6246225;23;19943;-73
2023/06/13 09:29:07;;;;;;;;;;;;;;;-140.72;0.00;51654.34;6246031;23;19912;-72
2023/06/13 09:31:36;;;;;;;;;;;;;;;-140.72;0.00;51632.03;6220169;23;19911;-73
2023/06/13 09:34:01;;;;;;;;;;;;;;;-140.72;0.00;51644.22;6256571;23;19912;-73
2023/06/13 09:36:27;;;;;;;;;;;;;;;-140.72;0.00;51621.91;6251366;23;19934;-73
2023/06/13 09:38:54;;;;;;;;;;;;;;;-140.72;0.00;51609.72;6248750;23;20061;-73
2023/06/13 09:41:19;;;;;;;;;;;;;;;-140.72;0.00;51672.63;6221735;23;19911;-73
2023/06/13 09:43:45;;;;;;;;;;;;;;;-140.72;0.00;51621.91;6247860;23;20400;-73
2023/06/13 09:46:11;;;;;;;;;;;;;;;-140.72;0.00;51597.56;6246897;23;19934;-73
2023/06/13 09:48:37;;;;;;;;;;;;;;;-140.72;0.00;51593.50;6246549;22;19990;-72
2023/06/13 09:51:09;;;;;;;;;;;;;;;-140.72;0.00;51605.66;6246000;23;20246;-73
2023/06/13 09:53:35;;;;;;;;;;;;;;;-140.72;0.00;51552.94;6218158;23;20339;-71
2023/06/13 09:56:00;;;;;;;;;;;;;;;-140.72;0.00;51530.59;6246168;23;19911;-74
2023/06/13 09:58:25;;;;;;;;;;;;;;;-140.72;0.00;51573.22;6246634;23;20042;-73
2023/06/13 10:00:56;;;;;;;;;;;;;;;-140.72;0.00;51512.34;6218915;23;19919;-73
2023/06/13 10:03:23;;;;;;;;;;;;;;;-140.72;0.00;51496.13;6246671;23;19990;-73
2023/06/13 10:05:49;;;;;;;;;;;;;;;-140.72;0.00;51461.63;6219035;23;20224;-74
2023/06/13 10:08:14;;;;;;;;;;;;;;;-140.72;0.00;51502.22;6245918;23;19912;-73
2023/06/13 10:10:40;;;;;;;;;;;;;;;-140.72;0.00;51485.97;6245531;23;20320;-73
2023/06/13 10:13:06;;;;;;;;;;;;;;;-140.72;0.00;51496.13;6245599;23;19943;-73
2023/06/13 10:15:33;;;;;;;;;;;;;;;-140.72;0.00;51457.56;6218579;23;19912;-73
2023/06/13 10:18:02;;;;;;;;;;;;;;;-140.72;0.00;51479.91;6217957;23;19912;-73
2023/06/13 10:20:28;;;;;;;;;;;;;;;-140.72;0.00;51506.25;6245281;23;20002;-73
2023/06/13 10:22:55;;;;;;;;;;;;;;;-140.72;0.00;51423.09;6245367;23;19986;-72
2023/06/13 10:25:22;;;;;;;;;;;;;;;-140.72;0.00;51384.53;6244991;23;19981;-73
2023/06/13 10:27:50;;;;;;;;;;;;;;;-140.72;0.00;51425.13;6220436;23;19911;-73
2023/06/13 10:30:21;;;;;;;;;;;;;;;-140.72;0.00;51441.34;6248747;23;19931;-73
2023/06/13 10:33:01;;;;;;;;;;;;;;;-140.72;0.00;51421.06;6249056;23;19912;-73
2023/06/13 10:35:35;;;;;;;;;;;;;;;-140.72;0.00;51404.84;6245254;23;20328;-73
2023/06/13 10:38:09;;;;;;;;;;;;;;;-140.72;0.00;51384.53;6245957;23;19912;-74
2023/06/13 10:40:54;;;;;;;;;;;;;;;-140.72;0.00;51431.19;6245078;23;20291;-73
2023/06/13 10:43:28;;;;;;;;;;;;;;;-140.72;0.00;51321.66;6218000;23;19919;-74
2023/06/13 10:45:56;;;;;;;;;;;;;;;-140.72;0.00;51360.22;6244889;23;19935;-73
2023/06/13 10:48:51;;;;;;;;;;;;;;;-140.72;0.00;51325.72;6217775;23;19950;-73
2023/06/13 10:51:20;;;;;;;;;;;;;;;-140.72;0.00;51309.50;6213515;23;19911;-73
2023/06/13 10:53:46;;;;;;;;;;;;;;;-140.72;0.00;51323.69;6217995;23;19911;-73
2023/06/13 10:56:12;;;;;;;;;;;;;;;-140.72;0.00;51325.72;6245534;23;20207;-73
2023/06/13 10:58:37;;;;;;;;;;;;;;;-140.72;0.00;51287.19;6245010;23;19911;-73
2023/06/13 11:01:22;;;;;;;;;;;;;;;-140.72;0.00;51325.72;6218524;23;19915;-73
2023/06/13 11:03:47;;;;;;;;;;;;;;;-140.72;0.00;51350.06;6218049;23;20328;-73
2023/06/13 11:06:14;;;;;;;;;;;;;;;-140.72;0.00;51283.13;6244757;23;19923;-73
2023/06/13 11:08:40;;;;;;;;;;;;;;;-140.72;0.00;51313.53;6217888;23;19956;-72
2023/06/13 11:11:05;;;;;;;;;;;;;;;-140.72;0.00;51262.84;6244945;23;19912;-73
2023/06/13 11:13:34;;;;;;;;;;;;;;;-140.72;0.00;51206.03;6244832;23;19911;-72
2023/06/13 11:16:18;;;;;;;;;;;;;;;-140.72;0.00;51283.13;6244845;23;20173;-72
2023/06/13 11:18:49;;;;;;;;;;;;;;;-140.72;0.00;51285.16;6246229;23;19915;-72
2023/06/13 11:21:15;;;;;;;;;;;;;;;-140.72;0.00;51250.66;6251342;23;20364;-73
2023/06/13 11:23:46;;;;;;;;;;;;;;;-140.72;0.00;51236.47;6246525;23;19930;-73
2023/06/13 11:26:12;;;;;;;;;;;;;;;-140.72;0.00;51240.53;6245479;23;19957;-73
2023/06/13 11:28:37;;;;;;;;;;;;;;;-140.72;0.00;51226.31;6218775;23;20189;-72
2023/06/13 11:31:04;;;;;;;;;;;;;;;-140.72;0.00;51246.59;6221345;23;19911;-72
2023/06/13 11:33:40;;;;;;;;;;;;;;;-140.72;0.00;51224.28;6221341;23;20316;-72
2023/06/13 11:36:06;;;;;;;;;;;;;;;-140.72;0.00;51240.53;6249036;23;19912;-73
2023/06/13 11:38:33;;;;;;;;;;;;;;;-140.72;0.00;51250.66;6247623;23;19920;-73
2023/06/13 11:40:59;;;;;;;;;;;;;;;-140.72;0.00;51226.31;6246302;23;19912;-72
2023/06/13 11:43:25;;;;;;;;;;;;;;;-140.72;0.00;51226.31;6245906;23;19939;-73
2023/06/13 11:45:56;;;;;;;;;;;;;;;-140.72;0.00;51256.75;6246175;23;19919;-72
2023/06/13 11:48:23;;;;;;;;;;;;;;;-140.72;0.00;51281.09;6245276;22;20334;-73
2023/06/13 11:50:48;;;;;;;;;;;;;;;-140.72;0.00;51266.88;6245674;23;19986;-73
2023/06/13 11:53:13;;;;;;;;;;;;;;;-140.72;0.00;51228.34;6245013;23;19918;-73
2023/06/13 11:55:39;;;;;;;;;;;;;;;-140.72;0.00;51224.28;6245209;23;19912;-73
2023/06/13 11:58:04;;;;;;;;;;;;;;;-140.72;0.00;51220.22;6217761;23;19985;-74
2023/06/13 12:00:55;;;;;;;;;;;;;;;-140.72;0.00;51214.16;6244422;23;19963;-73
2023/06/13 12:03:22;;;;;;;;;;;;;;;-140.72;0.00;51206.03;6218661;23;19918;-73
2023/06/13 12:05:47;;;;;;;;;;;;;;;-140.72;0.00;51218.22;6246551;23;19919;-74
2023/06/13 12:08:13;;;;;;;;;;;;;;;-140.72;0.00;51212.13;6218749;23;19916;-75
2023/06/13 12:10:38;;;;;;;;;;;;;;;-140.72;0.00;51197.91;6246075;23;19923;-74
2023/06/13 12:13:04;;;;;;;;;;;;;;;-140.72;0.00;51153.28;6246133;23;19911;-74
2023/06/13 12:15:29;;;;;;;;;;;;;;;-140.72;0.00;51238.50;6245789;23;19931;-74
2023/06/13 12:17:59;;;;;;;;;;;;;;;-140.72;0.00;51161.41;6245869;23;19966;-75
2023/06/13 12:20:25;;;;;;;;;;;;;;;-140.72;0.00;51110.69;6244959;23;20006;-75
2023/06/13 12:22:54;;;;;;;;;;;;;;;-140.72;0.00;51159.38;6245203;23;19912;-74
2023/06/13 12:25:20;;;;;;;;;;;;;;;-140.72;0.00;51124.91;6245429;23;19911;-74
2023/06/13 12:27:46;;;;;;;;;;;;;;;-140.72;0.00;51173.56;6245301;23;19912;-74
2023/06/13 12:30:13;;;;;;;;;;;;;;;-140.72;0.00;51169.53;6218259;23;20296;-74
2023/06/13 12:32:43;;;;;;;;;;;;;;;-140.72;0.00;51173.56;6218515;23;19915;-74
2023/06/13 12:35:09;;;;;;;;;;;;;;;-140.72;0.00;51133.00;6243678;23;19999;-74
2023/06/13 12:37:34;;;;;;;;;;;;;;;-140.72;0.00;51151.25;6244547;23;19919;-75
2023/06/13 12:40:06;;;;;;;;;;;;;;;-140.72;0.00;51141.13;6244339;23;19911;-75